Airfield :
LOGIN :

Register | Disclaimer

   EN    FR    IT 

 










Legend :    VFR   Marginal VFR   IFR   Intensive IFR   Very Intensive IFR
Visi :
Ceiling :
>= 8 km
>= 3000ft
5 to 8 km
1000 to 3000 ft
1500m to 5 km
500 to 1000 ft
800 to 1500m
200 to 500 ft
< 800m
< 200 ft
Symbols :   Thunderstorms  Fog  Heavy snow  Heavy precipitations  Wind > 20 kt
SIGMETs :     Misc.  Thunderstorms  Icing  Turbulence  Mountain Waves  Volcanic Ashes






- Airport Elevation : 12 ft
- IATA code : BCN


LEBL - Barcelone

CURRENT METAR :
  • 301600Z 20008KT 160V230 9999 FEW020 27/22 Q1010 NOSIG

EXPIRED METARs :
  • 301530Z 19008KT 150V230 9999 FEW020 28/22 Q1010 NOSIG
  • 301500Z 18010KT 150V230 9999 FEW020 28/22 Q1010 NOSIG
  • 301430Z 18011KT 150V210 9999 FEW020 28/23 Q1010 NOSIG
  • 301400Z 19011KT 150V220 9999 FEW020 28/23 Q1010 NOSIG
  • 301330Z 17011KT 140V200 9999 FEW015 28/23 Q1011 NOSIG

TAF TAF LEBL
Valid from the 30 at 12:00 until the 31 at 12:00 UTC


301100Z 3012/3112 22010KT 9999 FEW020 TX30/3014Z TN20/3106Z
BECMG 3018/3020 08009KT
PROB40
TEMPO 3020/3024 3000 BR BKN010
BECMG 3100/3102 33005KT



MET'MAP, your aeronautical weather chart ! - Copyright ORBIFLY December 2007 - Disclaimer

ORBIFLY MET'MAP TEAM :

Programming & Development : Alexandra Zaïnal
Concept & original design : Baudouin d'Aumeries
Assistance for programming : Marc-Olivier Méhu
Technical & hardware support : Manuel Goepfert

Contact : metmap@orbifly.com




SOURCES & CREDITS :

   NOAA